sensor_id;sensor_type;location;lat;lon;timestamp;P1;durP1;ratioP1;P2;durP2;ratioP2
64060;SDS011;60147;55.036;73.242;2023-11-21T00:00:15;40.65;;;17.38;;
64060;SDS011;60147;55.036;73.242;2023-11-21T00:02:42;44.28;;;20.00;;
64060;SDS011;60147;55.036;73.242;2023-11-21T00:05:08;46.60;;;19.50;;
64060;SDS011;60147;55.036;73.242;2023-11-21T00:07:38;43.50;;;20.58;;
64060;SDS011;60147;55.036;73.242;2023-11-21T00:10:04;47.58;;;20.02;;
64060;SDS011;60147;55.036;73.242;2023-11-21T00:12:31;47.55;;;20.83;;
64060;SDS011;60147;55.036;73.242;2023-11-21T00:14:57;45.25;;;18.73;;
64060;SDS011;60147;55.036;73.242;2023-11-21T00:17:23;42.25;;;16.10;;
64060;SDS011;60147;55.036;73.242;2023-11-21T00:19:50;40.13;;;17.90;;
64060;SDS011;60147;55.036;73.242;2023-11-21T00:22:17;40.78;;;17.52;;
64060;SDS011;60147;55.036;73.242;2023-11-21T00:24:43;48.60;;;19.98;;
64060;SDS011;60147;55.036;73.242;2023-11-21T00:27:09;41.58;;;17.08;;
64060;SDS011;60147;55.036;73.242;2023-11-21T00:29:35;52.35;;;18.70;;
64060;SDS011;60147;55.036;73.242;2023-11-21T00:32:01;39.90;;;18.75;;
64060;SDS011;60147;55.036;73.242;2023-11-21T00:34:27;36.78;;;16.52;;
64060;SDS011;60147;55.036;73.242;2023-11-21T00:36:53;46.03;;;19.00;;
64060;SDS011;60147;55.036;73.242;2023-11-21T00:39:20;46.92;;;20.17;;
64060;SDS011;60147;55.036;73.242;2023-11-21T00:41:46;45.80;;;18.75;;
64060;SDS011;60147;55.036;73.242;2023-11-21T00:44:12;48.30;;;19.08;;
64060;SDS011;60147;55.036;73.242;2023-11-21T00:46:38;42.35;;;19.58;;
64060;SDS011;60147;55.036;73.242;2023-11-21T00:49:04;49.72;;;18.90;;
64060;SDS011;60147;55.036;73.242;2023-11-21T00:51:30;51.35;;;20.70;;
64060;SDS011;60147;55.036;73.242;2023-11-21T00:53:56;60.63;;;21.40;;
64060;SDS011;60147;55.036;73.242;2023-11-21T00:56:21;53.10;;;22.15;;
64060;SDS011;60147;55.036;73.242;2023-11-21T00:58:47;59.90;;;23.52;;
64060;SDS011;60147;55.036;73.242;2023-11-21T01:01:21;53.17;;;23.07;;
64060;SDS011;60147;55.036;73.242;2023-11-21T01:03:48;39.55;;;17.67;;
64060;SDS011;60147;55.036;73.242;2023-11-21T01:06:14;49.40;;;19.65;;
64060;SDS011;60147;55.036;73.242;2023-11-21T01:08:41;50.92;;;21.40;;
64060;SDS011;60147;55.036;73.242;2023-11-21T01:11:09;55.53;;;19.67;;
64060;SDS011;60147;55.036;73.242;2023-11-21T01:13:38;60.67;;;23.13;;
64060;SDS011;60147;55.036;73.242;2023-11-21T01:16:04;45.90;;;19.83;;
64060;SDS011;60147;55.036;73.242;2023-11-21T01:18:32;56.53;;;21.50;;
64060;SDS011;60147;55.036;73.242;2023-11-21T01:20:58;59.20;;;21.67;;
64060;SDS011;60147;55.036;73.242;2023-11-21T01:23:26;61.95;;;21.30;;
64060;SDS011;60147;55.036;73.242;2023-11-21T01:25:53;54.42;;;21.90;;
64060;SDS011;60147;55.036;73.242;2023-11-21T01:28:19;57.95;;;21.80;;
64060;SDS011;60147;55.036;73.242;2023-11-21T01:30:45;62.75;;;22.75;;
64060;SDS011;60147;55.036;73.242;2023-11-21T01:33:12;62.00;;;23.73;;
64060;SDS011;60147;55.036;73.242;2023-11-21T01:35:39;53.03;;;19.15;;
64060;SDS011;60147;55.036;73.242;2023-11-21T01:38:05;68.30;;;23.65;;
64060;SDS011;60147;55.036;73.242;2023-11-21T01:40:34;52.50;;;22.27;;
64060;SDS011;60147;55.036;73.242;2023-11-21T01:43:00;51.80;;;20.63;;
64060;SDS011;60147;55.036;73.242;2023-11-21T01:45:29;64.20;;;21.75;;
64060;SDS011;60147;55.036;73.242;2023-11-21T01:47:56;56.92;;;21.63;;
64060;SDS011;60147;55.036;73.242;2023-11-21T01:50:23;49.08;;;21.55;;
64060;SDS011;60147;55.036;73.242;2023-11-21T01:52:49;44.88;;;18.08;;
64060;SDS011;60147;55.036;73.242;2023-11-21T01:55:16;46.25;;;20.42;;
64060;SDS011;60147;55.036;73.242;2023-11-21T01:57:46;54.27;;;19.20;;
64060;SDS011;60147;55.036;73.242;2023-11-21T02:00:12;48.25;;;19.80;;
64060;SDS011;60147;55.036;73.242;2023-11-21T02:02:45;40.72;;;18.60;;
64060;SDS011;60147;55.036;73.242;2023-11-21T02:05:11;52.03;;;21.15;;
64060;SDS011;60147;55.036;73.242;2023-11-21T02:07:41;54.15;;;22.48;;
64060;SDS011;60147;55.036;73.242;2023-11-21T02:10:08;65.68;;;25.75;;
64060;SDS011;60147;55.036;73.242;2023-11-21T02:12:35;57.92;;;23.58;;
64060;SDS011;60147;55.036;73.242;2023-11-21T02:15:02;62.92;;;23.38;;
64060;SDS011;60147;55.036;73.242;2023-11-21T02:17:31;60.38;;;23.33;;
64060;SDS011;60147;55.036;73.242;2023-11-21T02:19:58;52.47;;;22.65;;
64060;SDS011;60147;55.036;73.242;2023-11-21T02:22:25;49.13;;;21.40;;
64060;SDS011;60147;55.036;73.242;2023-11-21T02:24:52;50.30;;;20.70;;
64060;SDS011;60147;55.036;73.242;2023-11-21T02:27:18;55.58;;;22.05;;
64060;SDS011;60147;55.036;73.242;2023-11-21T02:29:47;54.85;;;21.85;;
64060;SDS011;60147;55.036;73.242;2023-11-21T02:32:13;39.50;;;19.50;;
64060;SDS011;60147;55.036;73.242;2023-11-21T02:34:40;47.38;;;19.33;;
64060;SDS011;60147;55.036;73.242;2023-11-21T02:37:05;47.70;;;20.38;;
64060;SDS011;60147;55.036;73.242;2023-11-21T02:39:32;44.97;;;19.77;;
64060;SDS011;60147;55.036;73.242;2023-11-21T02:41:58;47.88;;;20.33;;
64060;SDS011;60147;55.036;73.242;2023-11-21T02:44:23;50.33;;;20.55;;
64060;SDS011;60147;55.036;73.242;2023-11-21T02:46:49;50.05;;;24.80;;
64060;SDS011;60147;55.036;73.242;2023-11-21T02:49:15;46.13;;;22.35;;
64060;SDS011;60147;55.036;73.242;2023-11-21T02:51:42;56.55;;;27.48;;
64060;SDS011;60147;55.036;73.242;2023-11-21T02:54:09;56.33;;;26.20;;
64060;SDS011;60147;55.036;73.242;2023-11-21T02:56:35;56.67;;;27.05;;
64060;SDS011;60147;55.036;73.242;2023-11-21T02:59:02;41.10;;;18.30;;
64060;SDS011;60147;55.036;73.242;2023-11-21T03:01:29;48.13;;;21.23;;
64060;SDS011;60147;55.036;73.242;2023-11-21T03:03:54;43.17;;;18.95;;
64060;SDS011;60147;55.036;73.242;2023-11-21T03:06:21;41.47;;;19.27;;
64060;SDS011;60147;55.036;73.242;2023-11-21T03:08:47;36.17;;;16.48;;
64060;SDS011;60147;55.036;73.242;2023-11-21T03:11:13;42.13;;;20.25;;
64060;SDS011;60147;55.036;73.242;2023-11-21T03:13:40;41.45;;;19.40;;
64060;SDS011;60147;55.036;73.242;2023-11-21T03:16:08;40.55;;;19.50;;
64060;SDS011;60147;55.036;73.242;2023-11-21T03:18:40;40.47;;;19.30;;
64060;SDS011;60147;55.036;73.242;2023-11-21T03:21:06;33.10;;;15.27;;
64060;SDS011;60147;55.036;73.242;2023-11-21T03:23:34;40.67;;;17.73;;
64060;SDS011;60147;55.036;73.242;2023-11-21T03:26:02;40.85;;;17.23;;
64060;SDS011;60147;55.036;73.242;2023-11-21T03:28:29;33.05;;;14.45;;
64060;SDS011;60147;55.036;73.242;2023-11-21T03:30:56;29.60;;;13.85;;
64060;SDS011;60147;55.036;73.242;2023-11-21T03:33:23;32.58;;;15.30;;
64060;SDS011;60147;55.036;73.242;2023-11-21T03:35:49;32.63;;;16.02;;
64060;SDS011;60147;55.036;73.242;2023-11-21T03:38:15;31.25;;;14.65;;
64060;SDS011;60147;55.036;73.242;2023-11-21T03:40:41;32.70;;;16.10;;
64060;SDS011;60147;55.036;73.242;2023-11-21T03:43:07;30.33;;;15.60;;
64060;SDS011;60147;55.036;73.242;2023-11-21T03:45:33;31.38;;;13.32;;
64060;SDS011;60147;55.036;73.242;2023-11-21T03:47:59;31.65;;;12.65;;
64060;SDS011;60147;55.036;73.242;2023-11-21T03:50:28;25.45;;;11.80;;
64060;SDS011;60147;55.036;73.242;2023-11-21T03:52:54;23.52;;;11.02;;
64060;SDS011;60147;55.036;73.242;2023-11-21T03:55:20;27.38;;;11.40;;
64060;SDS011;60147;55.036;73.242;2023-11-21T03:57:46;26.30;;;12.80;;
64060;SDS011;60147;55.036;73.242;2023-11-21T04:00:12;32.45;;;12.38;;
64060;SDS011;60147;55.036;73.242;2023-11-21T04:02:38;24.80;;;12.63;;
64060;SDS011;60147;55.036;73.242;2023-11-21T04:05:05;35.53;;;13.73;;
64060;SDS011;60147;55.036;73.242;2023-11-21T04:07:32;32.08;;;13.27;;
64060;SDS011;60147;55.036;73.242;2023-11-21T04:09:59;29.55;;;14.32;;
64060;SDS011;60147;55.036;73.242;2023-11-21T04:12:25;40.20;;;14.73;;
64060;SDS011;60147;55.036;73.242;2023-11-21T04:14:51;40.53;;;14.85;;
64060;SDS011;60147;55.036;73.242;2023-11-21T04:17:20;35.25;;;13.60;;
64060;SDS011;60147;55.036;73.242;2023-11-21T04:19:46;23.67;;;12.40;;
64060;SDS011;60147;55.036;73.242;2023-11-21T04:22:12;27.92;;;12.98;;
64060;SDS011;60147;55.036;73.242;2023-11-21T04:24:38;35.20;;;14.95;;
64060;SDS011;60147;55.036;73.242;2023-11-21T04:27:04;24.13;;;11.88;;
64060;SDS011;60147;55.036;73.242;2023-11-21T04:29:30;36.03;;;13.23;;
64060;SDS011;60147;55.036;73.242;2023-11-21T04:31:56;25.02;;;11.75;;
64060;SDS011;60147;55.036;73.242;2023-11-21T04:34:22;32.78;;;13.93;;
64060;SDS011;60147;55.036;73.242;2023-11-21T04:36:48;32.85;;;14.60;;
64060;SDS011;60147;55.036;73.242;2023-11-21T04:39:13;29.60;;;11.85;;
64060;SDS011;60147;55.036;73.242;2023-11-21T04:41:39;35.25;;;13.45;;
64060;SDS011;60147;55.036;73.242;2023-11-21T04:44:05;31.92;;;13.85;;
64060;SDS011;60147;55.036;73.242;2023-11-21T04:46:31;36.40;;;14.80;;
64060;SDS011;60147;55.036;73.242;2023-11-21T04:48:58;27.08;;;12.60;;
64060;SDS011;60147;55.036;73.242;2023-11-21T04:51:24;42.38;;;13.63;;
64060;SDS011;60147;55.036;73.242;2023-11-21T04:53:50;38.40;;;13.00;;
64060;SDS011;60147;55.036;73.242;2023-11-21T04:56:16;29.00;;;13.60;;
64060;SDS011;60147;55.036;73.242;2023-11-21T04:58:41;35.30;;;13.15;;
64060;SDS011;60147;55.036;73.242;2023-11-21T05:01:07;39.60;;;15.23;;
64060;SDS011;60147;55.036;73.242;2023-11-21T05:03:33;35.75;;;15.20;;
64060;SDS011;60147;55.036;73.242;2023-11-21T05:05:59;35.35;;;13.90;;
64060;SDS011;60147;55.036;73.242;2023-11-21T05:08:25;33.05;;;12.15;;
64060;SDS011;60147;55.036;73.242;2023-11-21T05:10:52;35.92;;;12.90;;
64060;SDS011;60147;55.036;73.242;2023-11-21T05:13:19;38.28;;;13.27;;
64060;SDS011;60147;55.036;73.242;2023-11-21T05:15:45;38.38;;;13.57;;
64060;SDS011;60147;55.036;73.242;2023-11-21T05:18:11;28.45;;;12.65;;
64060;SDS011;60147;55.036;73.242;2023-11-21T05:20:39;35.20;;;13.43;;
64060;SDS011;60147;55.036;73.242;2023-11-21T05:23:06;46.13;;;15.10;;
64060;SDS011;60147;55.036;73.242;2023-11-21T05:25:33;34.28;;;12.98;;
64060;SDS011;60147;55.036;73.242;2023-11-21T05:27:59;37.80;;;12.52;;
64060;SDS011;60147;55.036;73.242;2023-11-21T05:30:27;29.02;;;12.07;;
64060;SDS011;60147;55.036;73.242;2023-11-21T05:32:53;29.17;;;13.05;;
64060;SDS011;60147;55.036;73.242;2023-11-21T05:35:19;28.83;;;12.90;;
64060;SDS011;60147;55.036;73.242;2023-11-21T05:37:45;43.38;;;15.18;;
64060;SDS011;60147;55.036;73.242;2023-11-21T05:40:11;34.67;;;12.85;;
64060;SDS011;60147;55.036;73.242;2023-11-21T05:42:38;33.75;;;12.90;;
64060;SDS011;60147;55.036;73.242;2023-11-21T05:45:04;36.67;;;16.17;;
64060;SDS011;60147;55.036;73.242;2023-11-21T05:47:40;35.45;;;14.57;;
64060;SDS011;60147;55.036;73.242;2023-11-21T05:50:07;53.00;;;18.17;;
64060;SDS011;60147;55.036;73.242;2023-11-21T05:52:40;40.85;;;13.23;;
64060;SDS011;60147;55.036;73.242;2023-11-21T05:55:06;30.75;;;13.52;;
64060;SDS011;60147;55.036;73.242;2023-11-21T05:57:33;35.85;;;14.10;;
64060;SDS011;60147;55.036;73.242;2023-11-21T06:00:05;45.30;;;17.77;;
64060;SDS011;60147;55.036;73.242;2023-11-21T06:02:40;43.47;;;16.45;;
64060;SDS011;60147;55.036;73.242;2023-11-21T06:05:07;31.10;;;14.00;;
64060;SDS011;60147;55.036;73.242;2023-11-21T06:07:33;44.13;;;15.98;;
64060;SDS011;60147;55.036;73.242;2023-11-21T06:09:59;30.15;;;14.50;;
64060;SDS011;60147;55.036;73.242;2023-11-21T06:12:27;32.08;;;12.73;;
64060;SDS011;60147;55.036;73.242;2023-11-21T06:14:53;29.52;;;13.15;;
64060;SDS011;60147;55.036;73.242;2023-11-21T06:17:21;41.50;;;16.95;;
64060;SDS011;60147;55.036;73.242;2023-11-21T06:19:47;40.30;;;17.15;;
64060;SDS011;60147;55.036;73.242;2023-11-21T06:22:13;33.53;;;13.50;;
64060;SDS011;60147;55.036;73.242;2023-11-21T06:24:39;30.17;;;14.50;;
64060;SDS011;60147;55.036;73.242;2023-11-21T06:27:06;21.52;;;11.93;;
64060;SDS011;60147;55.036;73.242;2023-11-21T06:29:32;33.30;;;15.23;;
64060;SDS011;60147;55.036;73.242;2023-11-21T06:31:58;28.83;;;13.52;;
64060;SDS011;60147;55.036;73.242;2023-11-21T06:34:24;32.08;;;13.63;;
64060;SDS011;60147;55.036;73.242;2023-11-21T06:36:50;30.70;;;15.05;;
64060;SDS011;60147;55.036;73.242;2023-11-21T06:39:17;36.17;;;15.40;;
64060;SDS011;60147;55.036;73.242;2023-11-21T06:41:43;21.75;;;11.45;;
64060;SDS011;60147;55.036;73.242;2023-11-21T06:44:08;23.10;;;12.10;;
64060;SDS011;60147;55.036;73.242;2023-11-21T06:46:34;21.33;;;11.38;;
64060;SDS011;60147;55.036;73.242;2023-11-21T06:49:00;20.92;;;10.80;;
64060;SDS011;60147;55.036;73.242;2023-11-21T06:51:26;21.15;;;9.15;;
64060;SDS011;60147;55.036;73.242;2023-11-21T06:53:52;16.40;;;8.38;;
64060;SDS011;60147;55.036;73.242;2023-11-21T06:56:18;21.10;;;9.82;;
64060;SDS011;60147;55.036;73.242;2023-11-21T06:58:45;21.50;;;10.82;;
64060;SDS011;60147;55.036;73.242;2023-11-21T07:01:12;19.38;;;10.00;;
64060;SDS011;60147;55.036;73.242;2023-11-21T07:03:38;28.77;;;10.98;;
64060;SDS011;60147;55.036;73.242;2023-11-21T07:06:04;21.92;;;10.93;;
64060;SDS011;60147;55.036;73.242;2023-11-21T07:08:32;19.45;;;9.30;;
64060;SDS011;60147;55.036;73.242;2023-11-21T07:10:58;20.98;;;9.52;;
64060;SDS011;60147;55.036;73.242;2023-11-21T07:13:24;17.83;;;9.00;;
64060;SDS011;60147;55.036;73.242;2023-11-21T07:15:51;20.65;;;9.45;;
64060;SDS011;60147;55.036;73.242;2023-11-21T07:18:17;15.07;;;8.38;;
64060;SDS011;60147;55.036;73.242;2023-11-21T07:20:43;20.00;;;8.50;;
64060;SDS011;60147;55.036;73.242;2023-11-21T07:23:09;22.30;;;9.85;;
64060;SDS011;60147;55.036;73.242;2023-11-21T07:25:36;23.60;;;8.68;;
64060;SDS011;60147;55.036;73.242;2023-11-21T07:28:02;15.38;;;8.63;;
64060;SDS011;60147;55.036;73.242;2023-11-21T07:30:30;17.73;;;8.13;;
64060;SDS011;60147;55.036;73.242;2023-11-21T07:32:56;13.88;;;7.75;;
64060;SDS011;60147;55.036;73.242;2023-11-21T07:35:22;13.20;;;7.38;;
64060;SDS011;60147;55.036;73.242;2023-11-21T07:37:48;16.23;;;8.10;;
64060;SDS011;60147;55.036;73.242;2023-11-21T07:40:14;26.73;;;8.55;;
64060;SDS011;60147;55.036;73.242;2023-11-21T07:42:41;15.23;;;7.68;;
64060;SDS011;60147;55.036;73.242;2023-11-21T07:45:10;17.85;;;7.75;;
64060;SDS011;60147;55.036;73.242;2023-11-21T07:47:36;14.15;;;8.07;;
64060;SDS011;60147;55.036;73.242;2023-11-21T07:50:03;16.92;;;7.75;;
64060;SDS011;60147;55.036;73.242;2023-11-21T07:52:29;15.00;;;7.57;;
64060;SDS011;60147;55.036;73.242;2023-11-21T07:54:55;16.33;;;7.75;;
64060;SDS011;60147;55.036;73.242;2023-11-21T07:57:21;18.25;;;7.93;;
64060;SDS011;60147;55.036;73.242;2023-11-21T07:59:47;21.27;;;8.90;;
64060;SDS011;60147;55.036;73.242;2023-11-21T08:02:13;17.35;;;8.25;;
64060;SDS011;60147;55.036;73.242;2023-11-21T08:04:40;20.58;;;8.95;;
64060;SDS011;60147;55.036;73.242;2023-11-21T08:07:05;20.25;;;8.93;;
64060;SDS011;60147;55.036;73.242;2023-11-21T08:09:31;20.00;;;9.82;;
64060;SDS011;60147;55.036;73.242;2023-11-21T08:12:03;16.35;;;8.38;;
64060;SDS011;60147;55.036;73.242;2023-11-21T08:14:30;17.35;;;8.73;;
64060;SDS011;60147;55.036;73.242;2023-11-21T08:16:56;19.38;;;8.80;;
64060;SDS011;60147;55.036;73.242;2023-11-21T08:19:23;15.82;;;8.52;;
64060;SDS011;60147;55.036;73.242;2023-11-21T08:21:50;21.90;;;8.63;;
64060;SDS011;60147;55.036;73.242;2023-11-21T08:24:16;17.25;;;8.63;;
64060;SDS011;60147;55.036;73.242;2023-11-21T08:26:42;18.38;;;9.48;;
64060;SDS011;60147;55.036;73.242;2023-11-21T08:29:08;18.00;;;8.70;;
64060;SDS011;60147;55.036;73.242;2023-11-21T08:31:34;20.40;;;6.75;;
64060;SDS011;60147;55.036;73.242;2023-11-21T08:34:00;23.10;;;10.07;;
64060;SDS011;60147;55.036;73.242;2023-11-21T08:36:28;23.88;;;11.48;;
64060;SDS011;60147;55.036;73.242;2023-11-21T08:38:54;20.15;;;9.75;;
64060;SDS011;60147;55.036;73.242;2023-11-21T08:41:20;18.90;;;9.50;;
64060;SDS011;60147;55.036;73.242;2023-11-21T08:43:52;23.20;;;12.43;;
64060;SDS011;60147;55.036;73.242;2023-11-21T08:46:19;21.90;;;10.80;;
64060;SDS011;60147;55.036;73.242;2023-11-21T08:48:45;25.10;;;11.52;;
64060;SDS011;60147;55.036;73.242;2023-11-21T08:51:11;28.50;;;14.95;;
64060;SDS011;60147;55.036;73.242;2023-11-21T08:53:37;21.55;;;9.60;;
64060;SDS011;60147;55.036;73.242;2023-11-21T08:56:03;19.20;;;7.38;;
64060;SDS011;60147;55.036;73.242;2023-11-21T08:58:30;17.05;;;7.93;;
64060;SDS011;60147;55.036;73.242;2023-11-21T09:01:00;14.00;;;8.43;;
64060;SDS011;60147;55.036;73.242;2023-11-21T09:03:27;9.75;;;5.78;;
64060;SDS011;60147;55.036;73.242;2023-11-21T09:05:54;19.45;;;9.50;;
64060;SDS011;60147;55.036;73.242;2023-11-21T09:08:20;17.23;;;8.40;;
64060;SDS011;60147;55.036;73.242;2023-11-21T09:10:48;21.77;;;9.57;;
64060;SDS011;60147;55.036;73.242;2023-11-21T09:13:13;15.98;;;9.57;;
64060;SDS011;60147;55.036;73.242;2023-11-21T09:15:43;15.48;;;9.20;;
64060;SDS011;60147;55.036;73.242;2023-11-21T09:18:14;24.88;;;9.43;;
64060;SDS011;60147;55.036;73.242;2023-11-21T09:20:41;15.10;;;7.72;;
64060;SDS011;60147;55.036;73.242;2023-11-21T09:23:09;16.23;;;8.65;;
64060;SDS011;60147;55.036;73.242;2023-11-21T09:25:35;16.05;;;9.30;;
64060;SDS011;60147;55.036;73.242;2023-11-21T09:28:05;16.55;;;8.18;;
64060;SDS011;60147;55.036;73.242;2023-11-21T09:30:35;17.50;;;8.70;;
64060;SDS011;60147;55.036;73.242;2023-11-21T09:33:03;15.35;;;8.10;;
64060;SDS011;60147;55.036;73.242;2023-11-21T09:35:33;20.30;;;8.03;;
64060;SDS011;60147;55.036;73.242;2023-11-21T09:37:59;12.95;;;6.80;;
64060;SDS011;60147;55.036;73.242;2023-11-21T09:40:28;17.38;;;8.15;;
64060;SDS011;60147;55.036;73.242;2023-11-21T09:42:56;13.23;;;7.82;;
64060;SDS011;60147;55.036;73.242;2023-11-21T09:45:26;17.52;;;8.15;;
64060;SDS011;60147;55.036;73.242;2023-11-21T09:47:53;14.27;;;6.65;;
64060;SDS011;60147;55.036;73.242;2023-11-21T09:50:21;15.40;;;7.80;;
64060;SDS011;60147;55.036;73.242;2023-11-21T09:52:54;19.05;;;8.65;;
64060;SDS011;60147;55.036;73.242;2023-11-21T09:55:21;15.25;;;8.73;;
64060;SDS011;60147;55.036;73.242;2023-11-21T09:57:47;17.13;;;8.65;;
64060;SDS011;60147;55.036;73.242;2023-11-21T10:00:16;14.63;;;8.93;;
64060;SDS011;60147;55.036;73.242;2023-11-21T10:02:43;21.02;;;8.27;;
64060;SDS011;60147;55.036;73.242;2023-11-21T10:05:09;14.23;;;7.50;;
64060;SDS011;60147;55.036;73.242;2023-11-21T10:07:37;18.05;;;9.65;;
64060;SDS011;60147;55.036;73.242;2023-11-21T10:10:05;14.70;;;7.72;;
64060;SDS011;60147;55.036;73.242;2023-11-21T10:12:31;17.13;;;8.55;;
64060;SDS011;60147;55.036;73.242;2023-11-21T10:14:58;20.52;;;9.52;;
64060;SDS011;60147;55.036;73.242;2023-11-21T10:17:26;20.20;;;9.27;;
64060;SDS011;60147;55.036;73.242;2023-11-21T10:19:56;15.45;;;7.85;;
64060;SDS011;60147;55.036;73.242;2023-11-21T10:22:23;14.88;;;8.90;;
64060;SDS011;60147;55.036;73.242;2023-11-21T10:24:49;17.35;;;9.45;;
64060;SDS011;60147;55.036;73.242;2023-11-21T10:27:16;12.77;;;6.82;;
64060;SDS011;60147;55.036;73.242;2023-11-21T10:29:41;16.20;;;8.70;;
64060;SDS011;60147;55.036;73.242;2023-11-21T10:32:07;18.90;;;8.88;;
64060;SDS011;60147;55.036;73.242;2023-11-21T10:34:33;21.00;;;8.63;;
64060;SDS011;60147;55.036;73.242;2023-11-21T10:37:00;12.35;;;7.20;;
64060;SDS011;60147;55.036;73.242;2023-11-21T10:39:36;11.80;;;6.55;;
64060;SDS011;60147;55.036;73.242;2023-11-21T10:42:02;15.23;;;8.40;;
64060;SDS011;60147;55.036;73.242;2023-11-21T10:44:28;9.82;;;5.78;;
64060;SDS011;60147;55.036;73.242;2023-11-21T10:46:54;15.75;;;9.32;;
64060;SDS011;60147;55.036;73.242;2023-11-21T10:49:24;17.63;;;9.13;;
64060;SDS011;60147;55.036;73.242;2023-11-21T10:51:53;14.02;;;8.05;;
64060;SDS011;60147;55.036;73.242;2023-11-21T10:54:20;17.88;;;9.68;;
64060;SDS011;60147;55.036;73.242;2023-11-21T10:56:49;17.73;;;7.82;;
64060;SDS011;60147;55.036;73.242;2023-11-21T10:59:17;18.52;;;8.00;;
64060;SDS011;60147;55.036;73.242;2023-11-21T11:01:46;17.65;;;8.00;;
64060;SDS011;60147;55.036;73.242;2023-11-21T11:04:17;19.75;;;9.57;;
64060;SDS011;60147;55.036;73.242;2023-11-21T11:06:43;17.40;;;8.38;;
64060;SDS011;60147;55.036;73.242;2023-11-21T11:09:23;18.92;;;10.05;;
64060;SDS011;60147;55.036;73.242;2023-11-21T11:11:49;23.98;;;9.85;;
64060;SDS011;60147;55.036;73.242;2023-11-21T11:14:16;25.90;;;11.90;;
64060;SDS011;60147;55.036;73.242;2023-11-21T11:16:44;18.85;;;9.70;;
64060;SDS011;60147;55.036;73.242;2023-11-21T11:19:10;22.90;;;11.15;;
64060;SDS011;60147;55.036;73.242;2023-11-21T11:26:46;14.10;;;7.43;;
64060;SDS011;60147;55.036;73.242;2023-11-21T11:31:40;16.52;;;8.48;;
64060;SDS011;60147;55.036;73.242;2023-11-21T11:36:45;14.25;;;6.32;;
64060;SDS011;60147;55.036;73.242;2023-11-21T11:41:58;10.57;;;6.22;;
64060;SDS011;60147;55.036;73.242;2023-11-21T11:47:26;10.30;;;5.63;;
64060;SDS011;60147;55.036;73.242;2023-11-21T11:49:57;12.52;;;7.00;;
64060;SDS011;60147;55.036;73.242;2023-11-21T11:55:02;13.50;;;7.80;;
64060;SDS011;60147;55.036;73.242;2023-11-21T11:57:32;15.73;;;7.90;;
64060;SDS011;60147;55.036;73.242;2023-11-21T12:00:14;10.00;;;5.88;;
64060;SDS011;60147;55.036;73.242;2023-11-21T12:02:46;13.48;;;6.88;;
64060;SDS011;60147;55.036;73.242;2023-11-21T12:05:13;16.85;;;8.82;;
64060;SDS011;60147;55.036;73.242;2023-11-21T12:08:03;13.30;;;7.40;;
64060;SDS011;60147;55.036;73.242;2023-11-21T12:10:30;14.05;;;7.10;;
64060;SDS011;60147;55.036;73.242;2023-11-21T12:13:00;11.85;;;6.00;;
64060;SDS011;60147;55.036;73.242;2023-11-21T12:15:26;19.65;;;9.05;;
64060;SDS011;60147;55.036;73.242;2023-11-21T12:17:55;9.98;;;6.13;;
64060;SDS011;60147;55.036;73.242;2023-11-21T12:20:23;10.30;;;6.97;;
64060;SDS011;60147;55.036;73.242;2023-11-21T12:22:57;13.13;;;7.30;;
64060;SDS011;60147;55.036;73.242;2023-11-21T12:25:29;12.60;;;7.13;;
64060;SDS011;60147;55.036;73.242;2023-11-21T12:27:57;11.50;;;6.30;;
64060;SDS011;60147;55.036;73.242;2023-11-21T12:30:25;9.10;;;4.43;;
64060;SDS011;60147;55.036;73.242;2023-11-21T12:32:54;11.18;;;6.40;;
64060;SDS011;60147;55.036;73.242;2023-11-21T12:35:22;15.43;;;6.10;;
64060;SDS011;60147;55.036;73.242;2023-11-21T12:37:49;10.60;;;5.82;;
64060;SDS011;60147;55.036;73.242;2023-11-21T12:40:15;8.30;;;4.43;;
64060;SDS011;60147;55.036;73.242;2023-11-21T12:42:43;12.57;;;6.45;;
64060;SDS011;60147;55.036;73.242;2023-11-21T12:45:10;7.82;;;4.22;;
64060;SDS011;60147;55.036;73.242;2023-11-21T12:47:43;12.70;;;5.90;;
64060;SDS011;60147;55.036;73.242;2023-11-21T12:50:09;7.82;;;4.85;;
64060;SDS011;60147;55.036;73.242;2023-11-21T12:52:42;10.93;;;4.95;;
64060;SDS011;60147;55.036;73.242;2023-11-21T12:55:09;10.60;;;5.70;;
64060;SDS011;60147;55.036;73.242;2023-11-21T12:57:40;11.38;;;4.47;;
64060;SDS011;60147;55.036;73.242;2023-11-21T13:00:18;10.27;;;4.22;;
64060;SDS011;60147;55.036;73.242;2023-11-21T13:02:54;12.30;;;5.55;;
64060;SDS011;60147;55.036;73.242;2023-11-21T13:05:35;11.20;;;6.03;;
64060;SDS011;60147;55.036;73.242;2023-11-21T13:08:04;8.05;;;4.60;;
64060;SDS011;60147;55.036;73.242;2023-11-21T13:10:34;9.32;;;4.80;;
64060;SDS011;60147;55.036;73.242;2023-11-21T13:13:02;9.10;;;5.32;;
64060;SDS011;60147;55.036;73.242;2023-11-21T13:15:30;5.90;;;4.25;;
64060;SDS011;60147;55.036;73.242;2023-11-21T13:17:58;4.65;;;2.33;;
64060;SDS011;60147;55.036;73.242;2023-11-21T13:20:24;8.15;;;4.65;;
64060;SDS011;60147;55.036;73.242;2023-11-21T13:22:58;6.43;;;4.00;;
64060;SDS011;60147;55.036;73.242;2023-11-21T13:25:28;9.43;;;4.53;;
64060;SDS011;60147;55.036;73.242;2023-11-21T13:27:54;9.70;;;4.78;;
64060;SDS011;60147;55.036;73.242;2023-11-21T13:30:20;3.45;;;2.58;;
64060;SDS011;60147;55.036;73.242;2023-11-21T13:32:53;10.50;;;4.82;;
64060;SDS011;60147;55.036;73.242;2023-11-21T13:35:23;7.68;;;4.60;;
64060;SDS011;60147;55.036;73.242;2023-11-21T13:38:18;4.80;;;3.65;;
64060;SDS011;60147;55.036;73.242;2023-11-21T13:43:15;4.07;;;3.35;;
64060;SDS011;60147;55.036;73.242;2023-11-21T13:45:42;9.15;;;4.60;;
64060;SDS011;60147;55.036;73.242;2023-11-21T13:48:08;8.57;;;3.97;;
64060;SDS011;60147;55.036;73.242;2023-11-21T13:50:36;2.97;;;2.60;;
64060;SDS011;60147;55.036;73.242;2023-11-21T13:53:02;7.43;;;3.70;;
64060;SDS011;60147;55.036;73.242;2023-11-21T13:55:36;7.88;;;4.18;;
64060;SDS011;60147;55.036;73.242;2023-11-21T13:58:02;10.82;;;4.32;;
64060;SDS011;60147;55.036;73.242;2023-11-21T14:00:33;7.57;;;4.55;;
64060;SDS011;60147;55.036;73.242;2023-11-21T14:03:22;8.48;;;4.63;;
64060;SDS011;60147;55.036;73.242;2023-11-21T14:05:58;9.10;;;4.43;;
64060;SDS011;60147;55.036;73.242;2023-11-21T14:08:26;7.75;;;4.07;;
64060;SDS011;60147;55.036;73.242;2023-11-21T14:10:54;7.07;;;3.78;;
64060;SDS011;60147;55.036;73.242;2023-11-21T14:15:51;5.05;;;3.40;;
64060;SDS011;60147;55.036;73.242;2023-11-21T14:18:23;3.47;;;2.08;;
64060;SDS011;60147;55.036;73.242;2023-11-21T14:20:56;8.38;;;3.63;;
64060;SDS011;60147;55.036;73.242;2023-11-21T14:23:23;4.90;;;3.78;;
64060;SDS011;60147;55.036;73.242;2023-11-21T14:25:51;12.38;;;5.25;;
64060;SDS011;60147;55.036;73.242;2023-11-21T14:28:18;11.60;;;5.45;;
64060;SDS011;60147;55.036;73.242;2023-11-21T14:30:47;6.85;;;4.28;;
64060;SDS011;60147;55.036;73.242;2023-11-21T14:33:14;7.88;;;3.78;;
64060;SDS011;60147;55.036;73.242;2023-11-21T14:35:42;4.95;;;3.17;;
64060;SDS011;60147;55.036;73.242;2023-11-21T14:38:08;5.10;;;3.17;;
64060;SDS011;60147;55.036;73.242;2023-11-21T14:40:35;16.00;;;9.70;;